createdAt,value
2019-03-04T00:01:43.234Z,3.77
2019-03-04T00:04:24.388Z,3.57
2019-03-04T00:07:05.209Z,3.73
2019-03-04T00:09:45.941Z,3.47
2019-03-04T00:12:26.774Z,3.33
2019-03-04T00:15:07.718Z,3.57
2019-03-04T00:17:48.308Z,3.20
2019-03-04T00:20:28.934Z,3.03
2019-03-04T00:23:09.704Z,3.20
2019-03-04T00:25:51.836Z,3.10
2019-03-04T00:28:33.436Z,2.90
2019-03-04T00:31:13.856Z,3.40
2019-03-04T00:33:54.415Z,3.60
2019-03-04T00:36:34.923Z,3.17
2019-03-04T00:39:15.898Z,3.43
2019-03-04T00:41:56.830Z,2.83
2019-03-04T00:44:37.328Z,3.10
2019-03-04T00:47:17.903Z,2.93
2019-03-04T00:49:58.828Z,2.70
2019-03-04T00:52:39.313Z,3.40
2019-03-04T00:55:20.188Z,2.90
2019-03-04T00:58:00.528Z,2.80
2019-03-04T01:00:41.236Z,2.90
2019-03-04T01:03:21.951Z,3.20
2019-03-04T01:06:03.453Z,3.30
2019-03-04T01:08:44.432Z,3.17
2019-03-04T01:11:24.907Z,3.50
2019-03-04T01:14:05.777Z,2.93
2019-03-04T01:16:46.424Z,3.20
2019-03-04T01:19:27.333Z,3.10
2019-03-04T01:22:08.316Z,3.40
2019-03-04T01:24:48.928Z,3.23
2019-03-04T01:27:29.628Z,2.70
2019-03-04T01:30:10.457Z,3.60
2019-03-04T01:32:50.980Z,3.47
2019-03-04T01:35:31.796Z,4.03
2019-03-04T01:38:12.516Z,3.53
2019-03-04T01:40:53.426Z,5.70
2019-03-04T01:43:34.121Z,3.20
2019-03-04T01:46:16.915Z,3.20
2019-03-04T01:48:57.824Z,3.47
2019-03-04T01:51:38.108Z,3.33
2019-03-04T01:54:18.782Z,3.30
2019-03-04T01:56:59.776Z,3.40
2019-03-04T01:59:40.527Z,3.30
2019-03-04T02:02:21.333Z,3.73
2019-03-04T02:05:02.188Z,3.17
2019-03-04T02:07:43.021Z,3.43
2019-03-04T02:10:24.024Z,4.13
2019-03-04T02:13:04.551Z,3.13
2019-03-04T02:15:45.405Z,3.30
2019-03-04T02:18:26.013Z,3.53
2019-03-04T02:21:06.736Z,3.27
2019-03-04T02:23:47.484Z,3.60
2019-03-04T02:26:28.571Z,3.10
2019-03-04T02:29:09.241Z,3.60
2019-03-04T02:31:49.976Z,3.23
2019-03-04T02:34:30.880Z,3.10
2019-03-04T02:37:11.664Z,3.43
2019-03-04T02:39:52.260Z,3.27
2019-03-04T02:42:32.892Z,3.27
2019-03-04T02:45:13.587Z,3.20
2019-03-04T02:47:54.400Z,3.47
2019-03-04T02:50:35.088Z,3.27
2019-03-04T02:53:16.058Z,3.20
2019-03-04T02:55:56.862Z,3.50
2019-03-04T02:58:37.824Z,3.33
2019-03-04T03:01:18.360Z,3.00
2019-03-04T03:03:59.128Z,3.27
2019-03-04T03:06:39.824Z,3.40
2019-03-04T03:09:20.540Z,3.17
2019-03-04T03:12:01.329Z,3.40
2019-03-04T03:14:42.256Z,3.40
2019-03-04T03:17:23.103Z,2.90
2019-03-04T03:20:03.564Z,3.33
2019-03-04T03:22:44.427Z,3.37
2019-03-04T03:25:25.090Z,3.50
2019-03-04T03:28:05.574Z,3.10
2019-03-04T03:30:46.587Z,3.30
2019-03-04T03:33:28.010Z,3.27
2019-03-04T03:36:08.791Z,3.03
2019-03-04T03:38:49.731Z,3.47
2019-03-04T03:41:30.159Z,3.80
2019-03-04T03:44:10.790Z,3.33
2019-03-04T03:46:51.127Z,3.50
2019-03-04T03:49:32.125Z,3.70
2019-03-04T03:52:15.324Z,3.10
2019-03-04T03:54:55.666Z,3.70
2019-03-04T03:57:36.541Z,3.00
2019-03-04T04:00:17.389Z,3.63
2019-03-04T04:02:57.771Z,4.37
2019-03-04T04:05:38.410Z,3.60
2019-03-04T04:08:19.154Z,3.60
2019-03-04T04:10:59.726Z,3.43
2019-03-04T04:13:40.204Z,2.90
2019-03-04T04:16:20.822Z,3.13
2019-03-04T04:19:01.687Z,3.33
2019-03-04T04:21:42.179Z,3.57
2019-03-04T04:24:23.011Z,3.07
2019-03-04T04:27:03.593Z,3.10
2019-03-04T04:29:44.203Z,3.30
2019-03-04T04:32:25.117Z,2.80
2019-03-04T04:35:05.594Z,2.87
2019-03-04T04:37:46.036Z,3.37
2019-03-04T04:40:26.564Z,2.90
2019-03-04T04:43:07.215Z,3.10
2019-03-04T04:45:47.900Z,3.30
2019-03-04T04:48:26.912Z,2.90
2019-03-04T04:51:14.841Z,3.17
2019-03-04T04:54:02.771Z,3.50
2019-03-04T04:56:50.673Z,3.20
2019-03-04T04:59:38.589Z,3.50
2019-03-04T05:02:26.492Z,2.70
2019-03-04T05:05:14.481Z,2.97
2019-03-04T05:08:02.404Z,3.47
2019-03-04T05:10:50.310Z,3.20
2019-03-04T05:13:38.212Z,3.13
2019-03-04T05:16:26.117Z,3.13
2019-03-04T05:19:14.041Z,3.00
2019-03-04T05:25:09.192Z,2.90
2019-03-04T05:27:50.002Z,2.90
2019-03-04T05:30:30.777Z,2.60
2019-03-04T05:33:11.368Z,2.80
2019-03-04T05:35:51.961Z,2.70
2019-03-04T05:38:32.674Z,2.40
2019-03-04T05:41:13.408Z,2.97
2019-03-04T05:43:54.184Z,2.67
2019-03-04T05:46:34.928Z,3.07
2019-03-04T05:49:15.377Z,2.40
2019-03-04T05:51:56.305Z,2.80
2019-03-04T05:54:37.060Z,2.70
2019-03-04T05:57:17.865Z,2.87
2019-03-04T05:59:58.550Z,2.40
2019-03-04T06:02:39.254Z,2.40
2019-03-04T06:05:20.129Z,2.60
2019-03-04T06:08:02.879Z,2.57
2019-03-04T06:10:43.369Z,2.40
2019-03-04T06:13:24.413Z,2.47
2019-03-04T06:16:05.325Z,2.43
2019-03-04T06:18:46.162Z,1.60
2019-03-04T06:21:26.864Z,1.97
2019-03-04T06:24:07.604Z,2.57
2019-03-04T06:26:48.218Z,2.20
2019-03-04T06:29:29.078Z,2.17
2019-03-04T06:32:09.780Z,1.70
2019-03-04T06:34:50.688Z,2.20
2019-03-04T06:37:31.369Z,1.83
2019-03-04T06:40:12.372Z,2.20
2019-03-04T06:42:53.079Z,1.60
2019-03-04T06:45:33.612Z,1.60
2019-03-04T06:48:14.788Z,1.57
2019-03-04T06:50:55.206Z,2.30
2019-03-04T06:53:35.750Z,2.00
2019-03-04T06:56:16.532Z,2.10
2019-03-04T06:58:57.507Z,1.93
2019-03-04T07:01:38.233Z,1.93
2019-03-04T07:04:19.073Z,1.50
2019-03-04T07:06:59.843Z,2.23
2019-03-04T07:09:40.618Z,2.17
2019-03-04T07:12:21.361Z,2.10
2019-03-04T07:15:02.243Z,2.07
2019-03-04T07:17:42.998Z,1.57
2019-03-04T07:20:23.784Z,2.20
2019-03-04T07:23:04.502Z,2.53
2019-03-04T07:25:45.160Z,1.80
2019-03-04T07:28:25.873Z,2.40
2019-03-04T07:31:06.681Z,1.90
2019-03-04T07:33:47.516Z,2.40
2019-03-04T07:36:28.481Z,1.87
2019-03-04T07:39:09.064Z,2.03
2019-03-04T07:41:49.533Z,2.20
2019-03-04T07:44:30.179Z,2.50
2019-03-04T07:47:11.205Z,1.70
2019-03-04T07:49:52.147Z,2.37
2019-03-04T07:52:32.945Z,2.07
2019-03-04T07:55:13.468Z,1.90
2019-03-04T07:57:54.248Z,4.37
2019-03-04T08:00:34.837Z,3.03
2019-03-04T08:03:15.620Z,2.40
2019-03-04T08:05:57.791Z,2.07
2019-03-04T08:08:39.025Z,2.00
2019-03-04T08:11:19.711Z,1.90
2019-03-04T08:14:00.340Z,2.40
2019-03-04T08:16:41.041Z,2.30
2019-03-04T08:19:21.745Z,1.33
2019-03-04T08:22:02.515Z,1.10
2019-03-04T08:24:43.094Z,1.00
2019-03-04T08:27:24.037Z,1.20
2019-03-04T08:30:04.926Z,0.83
2019-03-04T08:32:45.891Z,0.90
2019-03-04T08:35:26.816Z,0.87
2019-03-04T08:38:07.349Z,0.80
2019-03-04T08:40:48.059Z,0.80
2019-03-04T08:43:28.929Z,0.80
2019-03-04T08:46:09.502Z,0.80
2019-03-04T08:48:50.459Z,1.10
2019-03-04T08:51:31.024Z,0.80
2019-03-04T08:54:11.718Z,0.70
2019-03-04T08:56:52.681Z,1.00
2019-03-04T08:59:33.496Z,1.00
2019-03-04T09:02:14.482Z,1.20
2019-03-04T09:04:55.260Z,1.10
2019-03-04T09:07:35.921Z,0.80
2019-03-04T09:10:16.725Z,0.87
2019-03-04T09:12:57.351Z,1.03
2019-03-04T09:15:38.082Z,1.90
2019-03-04T09:18:18.660Z,0.73
2019-03-04T09:20:59.245Z,0.77
2019-03-04T09:23:39.954Z,0.90
2019-03-04T09:26:20.750Z,1.00
2019-03-04T09:29:01.416Z,1.37
2019-03-04T09:31:42.045Z,0.80
2019-03-04T09:34:22.913Z,1.23
2019-03-04T09:37:03.553Z,1.13
2019-03-04T09:39:44.346Z,0.93
2019-03-04T09:42:26.699Z,0.90
2019-03-04T09:45:07.089Z,1.20
2019-03-04T09:47:47.829Z,1.20
2019-03-04T09:50:28.928Z,1.20
2019-03-04T09:53:09.849Z,1.40
2019-03-04T09:55:50.419Z,1.10
2019-03-04T09:58:31.106Z,1.20
2019-03-04T10:01:11.716Z,1.20
2019-03-04T10:03:52.676Z,1.40
2019-03-04T10:06:33.753Z,1.67
2019-03-04T10:09:14.557Z,1.30
2019-03-04T10:11:55.286Z,1.27
2019-03-04T10:14:35.856Z,1.37
2019-03-04T10:17:16.612Z,1.20
2019-03-04T10:19:57.448Z,1.30
2019-03-04T10:22:38.100Z,1.70
2019-03-04T10:25:18.860Z,1.47
2019-03-04T10:27:59.416Z,1.50
2019-03-04T10:30:40.031Z,1.50
2019-03-04T10:33:20.748Z,1.73
2019-03-04T10:36:01.541Z,1.30
2019-03-04T10:38:42.919Z,1.57
2019-03-04T10:41:23.360Z,1.03
2019-03-04T10:44:04.220Z,1.00
2019-03-04T10:46:44.910Z,0.90
2019-03-04T10:49:25.753Z,1.20
2019-03-04T10:52:06.401Z,1.30
2019-03-04T10:54:47.223Z,1.57
2019-03-04T10:57:27.973Z,1.20
2019-03-04T11:00:08.407Z,1.87
2019-03-04T11:02:49.070Z,1.37
2019-03-04T11:05:29.988Z,1.47
2019-03-04T11:08:10.689Z,1.30
2019-03-04T11:10:51.624Z,1.30
2019-03-04T11:13:32.397Z,1.00
2019-03-04T11:16:13.318Z,1.40
2019-03-04T11:18:53.950Z,1.30
2019-03-04T11:21:34.558Z,0.90
2019-03-04T11:24:15.596Z,1.47
2019-03-04T11:26:56.639Z,1.30
2019-03-04T11:29:37.792Z,1.20
2019-03-04T11:32:18.137Z,1.30
2019-03-04T11:34:58.965Z,2.00
2019-03-04T11:37:39.784Z,1.53
2019-03-04T11:40:27.539Z,1.17
2019-03-04T11:43:08.364Z,2.03
2019-03-04T11:45:49.010Z,1.50
2019-03-04T11:48:29.944Z,1.43
2019-03-04T11:51:10.445Z,1.47
2019-03-04T11:53:50.978Z,1.47
2019-03-04T11:56:31.572Z,1.63
2019-03-04T11:59:12.368Z,1.23
2019-03-04T12:01:53.044Z,1.27
2019-03-04T12:04:33.812Z,1.10
2019-03-04T12:07:14.535Z,1.20
2019-03-04T12:09:55.122Z,1.20
2019-03-04T12:12:35.968Z,1.00
2019-03-04T12:15:16.784Z,0.87
2019-03-04T12:17:57.552Z,1.40
2019-03-04T12:20:38.455Z,1.40
2019-03-04T12:23:19.054Z,1.27
2019-03-04T12:25:59.888Z,1.27
2019-03-04T12:28:40.620Z,0.90
2019-03-04T12:31:22.114Z,1.70
2019-03-04T12:34:02.867Z,1.57
2019-03-04T12:36:45.387Z,1.00
2019-03-04T12:39:25.940Z,1.27
2019-03-04T12:42:06.889Z,1.10
2019-03-04T12:44:47.645Z,1.13
2019-03-04T12:47:28.475Z,1.30
2019-03-04T12:50:09.003Z,1.80
2019-03-04T12:52:49.561Z,1.10
2019-03-04T12:55:30.025Z,1.30
2019-03-04T12:58:10.347Z,0.70
2019-03-04T13:00:50.987Z,0.90
2019-03-04T13:03:31.361Z,1.00
2019-03-04T13:06:12.088Z,0.70
2019-03-04T13:08:52.505Z,0.70
2019-03-04T13:11:32.835Z,0.60
2019-03-04T13:14:13.428Z,0.60
2019-03-04T13:16:54.228Z,0.57
2019-03-04T13:19:34.996Z,0.50
2019-03-04T13:22:15.477Z,0.60
2019-03-04T13:24:55.932Z,0.60
2019-03-04T13:27:36.596Z,0.70
2019-03-04T13:30:17.196Z,0.60
2019-03-04T13:32:58.019Z,0.60
2019-03-04T13:35:38.412Z,0.50
2019-03-04T13:38:19.187Z,0.60
2019-03-04T13:40:59.568Z,0.60
2019-03-04T13:43:40.200Z,0.70
2019-03-04T13:46:20.711Z,0.70
2019-03-04T13:49:02.173Z,2.40
2019-03-04T13:51:42.500Z,1.20
2019-03-04T13:54:23.072Z,0.80
2019-03-04T13:57:03.563Z,0.80
2019-03-04T13:59:44.405Z,1.00
2019-03-04T14:02:24.791Z,1.20
2019-03-04T14:05:05.444Z,1.27
2019-03-04T14:07:45.904Z,1.63
2019-03-04T14:10:26.733Z,1.23
2019-03-04T14:13:07.743Z,1.40
2019-03-04T14:15:48.500Z,1.30
2019-03-04T14:18:29.718Z,1.60
2019-03-04T14:21:10.107Z,2.10
2019-03-04T14:23:50.485Z,2.10
2019-03-04T14:26:30.940Z,1.87
2019-03-04T14:29:11.528Z,2.13
2019-03-04T14:31:52.347Z,2.23
2019-03-04T14:34:32.958Z,2.20
2019-03-04T14:37:13.715Z,2.37
2019-03-04T14:39:54.583Z,3.17
2019-03-04T14:42:35.288Z,2.40
2019-03-04T14:45:16.015Z,2.67
2019-03-04T14:47:56.743Z,2.80
2019-03-04T14:50:37.532Z,2.80
2019-03-04T14:53:18.249Z,2.60
2019-03-04T14:56:01.132Z,2.87
2019-03-04T14:58:41.581Z,2.40
2019-03-04T15:01:22.350Z,2.70
2019-03-04T15:04:03.141Z,2.80
2019-03-04T15:06:44.056Z,2.17
2019-03-04T15:09:24.668Z,3.20
2019-03-04T15:12:05.571Z,2.37
2019-03-04T15:14:46.197Z,2.00
2019-03-04T15:17:26.760Z,2.37
2019-03-04T15:20:09.572Z,2.20
2019-03-04T15:22:50.101Z,2.60
2019-03-04T15:25:31.134Z,2.90
2019-03-04T15:28:12.420Z,3.00
2019-03-04T15:30:53.038Z,2.50
2019-03-04T15:33:33.731Z,2.40
2019-03-04T15:36:14.296Z,2.47
2019-03-04T15:38:55.004Z,2.60
2019-03-04T15:41:40.352Z,2.70
2019-03-04T15:44:17.971Z,2.80
2019-03-04T15:46:58.811Z,2.70
2019-03-04T15:49:39.633Z,2.30
2019-03-04T15:52:20.129Z,2.87
2019-03-04T15:55:00.493Z,2.40
2019-03-04T15:57:41.080Z,2.30
2019-03-04T16:00:21.536Z,2.50
2019-03-04T16:03:02.574Z,2.33
2019-03-04T16:05:43.100Z,2.83
2019-03-04T16:08:23.680Z,2.63
2019-03-04T16:11:04.176Z,2.70
2019-03-04T16:13:52.749Z,2.37
2019-03-04T16:16:27.805Z,3.00
2019-03-04T16:19:08.156Z,2.70
2019-03-04T16:21:48.787Z,2.93
2019-03-04T16:24:29.097Z,2.97
2019-03-04T16:27:09.803Z,2.73
2019-03-04T16:29:50.140Z,3.50
2019-03-04T16:32:30.615Z,2.83
2019-03-04T16:35:11.265Z,2.50
2019-03-04T16:37:51.933Z,2.60
2019-03-04T16:40:32.641Z,3.20
2019-03-04T16:43:13.100Z,3.13
2019-03-04T16:45:53.787Z,2.60
2019-03-04T16:48:34.215Z,2.80
2019-03-04T16:51:14.906Z,2.90
2019-03-04T16:53:55.469Z,2.30
2019-03-04T16:56:36.053Z,2.77
2019-03-04T16:59:16.792Z,2.80
2019-03-04T17:01:57.325Z,2.53
2019-03-04T17:04:38.540Z,3.20
2019-03-04T17:07:19.453Z,3.03
2019-03-04T17:10:00.353Z,3.20
2019-03-04T17:12:40.834Z,3.03
2019-03-04T17:15:21.660Z,3.00
2019-03-04T17:18:02.353Z,3.63
2019-03-04T17:20:43.075Z,2.73
2019-03-04T17:23:24.039Z,3.57
2019-03-04T17:26:04.503Z,2.70
2019-03-04T17:28:45.262Z,2.47
2019-03-04T17:31:25.849Z,2.50
2019-03-04T17:34:06.585Z,2.50
2019-03-04T17:36:47.233Z,3.03
2019-03-04T17:39:28.090Z,3.83
2019-03-04T17:42:08.780Z,3.30
2019-03-04T17:44:49.483Z,2.60
2019-03-04T17:47:30.100Z,2.60
2019-03-04T17:50:10.787Z,2.70
2019-03-04T17:52:51.553Z,2.17
2019-03-04T17:55:32.364Z,2.37
2019-03-04T17:58:12.902Z,3.10
2019-03-04T18:00:54.888Z,2.23
2019-03-04T18:03:35.751Z,2.33
2019-03-04T18:06:16.451Z,3.00
2019-03-04T18:08:57.269Z,2.80
2019-03-04T18:11:37.967Z,3.20
2019-03-04T18:14:18.879Z,3.07
2019-03-04T18:16:59.735Z,2.53
2019-03-04T18:19:40.472Z,2.77
2019-03-04T18:22:21.096Z,2.70
2019-03-04T18:25:02.127Z,2.93
2019-03-04T18:27:42.699Z,2.60
2019-03-04T18:30:23.743Z,2.70
2019-03-04T18:33:04.472Z,3.23
2019-03-04T18:35:45.240Z,2.97
2019-03-04T18:38:26.040Z,2.60
2019-03-04T18:41:06.739Z,3.13
2019-03-04T18:43:47.320Z,2.43
2019-03-04T18:46:28.192Z,3.27
2019-03-04T18:49:08.959Z,3.17
2019-03-04T18:51:49.800Z,2.90
2019-03-04T18:54:30.846Z,3.40
2019-03-04T18:57:11.444Z,3.93
2019-03-04T18:59:52.172Z,3.37
2019-03-04T19:02:32.977Z,3.23
2019-03-04T19:05:13.713Z,3.37
2019-03-04T19:07:54.692Z,3.60
2019-03-04T19:10:35.365Z,3.50
2019-03-04T19:13:15.932Z,3.57
2019-03-04T19:15:56.580Z,3.73
2019-03-04T19:18:37.319Z,3.10
2019-03-04T19:21:18.206Z,3.67
2019-03-04T19:23:58.689Z,4.20
2019-03-04T19:26:39.408Z,3.50
2019-03-04T19:29:19.926Z,2.97
2019-03-04T19:32:00.553Z,3.13
2019-03-04T19:34:41.323Z,3.30
2019-03-04T19:37:21.768Z,3.80
2019-03-04T19:40:02.586Z,3.70
2019-03-04T19:42:43.154Z,3.70
2019-03-04T19:45:23.786Z,3.60
2019-03-04T19:48:04.488Z,3.90
2019-03-04T19:50:45.228Z,3.60
2019-03-04T19:53:25.968Z,3.60
2019-03-04T19:56:06.736Z,3.80
2019-03-04T19:58:47.382Z,3.60
2019-03-04T20:01:28.432Z,3.83
2019-03-04T20:04:09.133Z,4.03
2019-03-04T20:06:50.080Z,3.40
2019-03-04T20:09:30.806Z,4.37
2019-03-04T20:12:11.819Z,3.90
2019-03-04T20:14:52.224Z,4.10
2019-03-04T20:17:32.960Z,4.20
2019-03-04T20:20:13.641Z,3.83
2019-03-04T20:22:54.600Z,4.33
2019-03-04T20:25:35.464Z,4.13
2019-03-04T20:28:16.029Z,4.60
2019-03-04T20:30:56.944Z,4.67
2019-03-04T20:33:37.565Z,4.87
2019-03-04T20:36:18.416Z,4.07
2019-03-04T20:38:59.044Z,4.17
2019-03-04T20:41:39.592Z,4.40
2019-03-04T20:44:20.092Z,3.80
2019-03-04T20:47:00.901Z,4.53
2019-03-04T20:49:41.446Z,3.80
2019-03-04T20:52:22.358Z,4.70
2019-03-04T20:55:03.128Z,3.43
2019-03-04T20:57:44.111Z,3.67
2019-03-04T21:00:27.968Z,3.80
2019-03-04T21:03:08.767Z,4.07
2019-03-04T21:05:49.646Z,3.37
2019-03-04T21:08:30.581Z,4.00
2019-03-04T21:11:11.265Z,3.33
2019-03-04T21:13:52.031Z,3.40
2019-03-04T21:16:32.873Z,2.90
2019-03-04T21:19:13.564Z,3.13
2019-03-04T21:21:54.308Z,3.17
2019-03-04T21:24:35.150Z,3.10
2019-03-04T21:27:15.803Z,3.60
2019-03-04T21:29:56.579Z,2.97
2019-03-04T21:32:37.257Z,3.87
2019-03-04T21:35:18.065Z,3.17
2019-03-04T21:37:58.473Z,3.23
2019-03-04T21:40:39.074Z,3.20
2019-03-04T21:43:19.523Z,3.20
2019-03-04T21:46:00.383Z,3.80
2019-03-04T21:48:40.895Z,3.43
2019-03-04T21:51:21.383Z,4.00
2019-03-04T21:54:01.901Z,3.97
2019-03-04T21:56:42.282Z,4.60
2019-03-04T21:59:23.051Z,4.27
2019-03-04T22:02:03.917Z,4.20
2019-03-04T22:04:44.498Z,4.17
2019-03-04T22:07:24.827Z,4.13
2019-03-04T22:10:05.732Z,3.00
2019-03-04T22:12:46.166Z,3.40
2019-03-04T22:15:26.862Z,3.67
2019-03-04T22:18:07.329Z,3.57
2019-03-04T22:20:48.030Z,3.37
2019-03-04T22:23:29.046Z,3.30
2019-03-04T22:26:09.624Z,3.60
2019-03-04T22:28:50.171Z,3.47
2019-03-04T22:31:30.993Z,3.60
2019-03-04T22:34:11.416Z,3.27
2019-03-04T22:36:52.586Z,3.90
2019-03-04T22:39:33.383Z,4.00
2019-03-04T22:42:13.980Z,4.03
2019-03-04T22:44:54.281Z,4.07
2019-03-04T22:47:34.774Z,4.00
2019-03-04T22:50:18.200Z,3.30
2019-03-04T22:52:58.823Z,3.00
2019-03-04T22:55:39.560Z,3.60
2019-03-04T22:58:28.014Z,3.33
2019-03-04T23:01:16.452Z,3.40
2019-03-04T23:03:57.627Z,3.67
2019-03-04T23:06:38.093Z,3.60
2019-03-04T23:09:18.982Z,3.50
2019-03-04T23:11:59.453Z,3.40
2019-03-04T23:14:40.278Z,3.30
2019-03-04T23:17:21.029Z,3.60
2019-03-04T23:20:01.682Z,2.67
2019-03-04T23:22:42.395Z,3.00
2019-03-04T23:25:23.081Z,3.50
2019-03-04T23:28:03.379Z,2.63
2019-03-04T23:30:44.044Z,3.70
2019-03-04T23:33:25.031Z,3.73
2019-03-04T23:36:05.748Z,4.50
2019-03-04T23:38:46.364Z,4.27
2019-03-04T23:41:26.881Z,4.20
2019-03-04T23:44:07.563Z,3.70
2019-03-04T23:46:48.051Z,4.37
2019-03-04T23:49:28.701Z,4.10
2019-03-04T23:52:09.444Z,4.13
2019-03-04T23:54:50.119Z,5.30
2019-03-04T23:57:30.715Z,3.80
